createdAt,value
2018-01-05T00:00:48.853Z,28.8
2018-01-05T00:01:51.440Z,28.8
2018-01-05T00:02:48.616Z,28.8
2018-01-05T00:03:48.577Z,28.8
2018-01-05T00:04:48.618Z,28.8
2018-01-05T00:05:49.005Z,28.8
2018-01-05T00:06:48.785Z,28.8
2018-01-05T00:07:48.730Z,28.8
2018-01-05T00:08:48.830Z,28.8
2018-01-05T00:09:48.886Z,28.8
2018-01-05T00:10:48.919Z,28.8
2018-01-05T00:11:48.973Z,28.8
2018-01-05T00:12:52.232Z,28.8
2018-01-05T00:13:49.353Z,28.8
2018-01-05T00:14:49.104Z,28.8
2018-01-05T00:15:49.010Z,28.8
2018-01-05T00:16:49.023Z,28.8
2018-01-05T00:17:51.930Z,28.8
2018-01-05T00:18:52.344Z,28.7
2018-01-05T00:19:51.358Z,28.8
2018-01-05T00:20:49.249Z,28.8
2018-01-05T00:21:49.239Z,28.7
2018-01-05T00:22:52.204Z,28.8
2018-01-05T00:23:49.716Z,28.8
2018-01-05T00:24:52.320Z,28.8
2018-01-05T00:25:49.427Z,28.7
2018-01-05T00:26:52.380Z,28.8
2018-01-05T00:27:49.869Z,28.8
2018-01-05T00:28:52.803Z,28.7
2018-01-05T00:29:52.492Z,28.8
2018-01-05T00:30:49.610Z,28.8
2018-01-05T00:31:49.646Z,28.8
2018-01-05T00:32:49.944Z,28.7
2018-01-05T00:33:52.590Z,28.8
2018-01-05T00:34:52.988Z,28.8
2018-01-05T00:35:49.810Z,28.8
2018-01-05T00:36:53.039Z,28.8
2018-01-05T00:37:49.936Z,28.8
2018-01-05T00:38:49.975Z,28.8
2018-01-05T00:39:49.971Z,28.8
2018-01-05T00:40:53.275Z,28.8
2018-01-05T00:41:50.464Z,28.7
2018-01-05T00:42:53.373Z,28.7
2018-01-05T00:43:50.228Z,28.7
2018-01-05T00:44:50.256Z,28.7
2018-01-05T00:45:50.302Z,28.7
2018-01-05T00:46:53.560Z,28.7
2018-01-05T00:47:53.338Z,28.8
2018-01-05T00:48:50.513Z,28.8
2018-01-05T00:49:50.838Z,28.8
2018-01-05T00:50:53.488Z,28.8
2018-01-05T00:51:50.912Z,28.7
2018-01-05T00:52:53.608Z,28.8
2018-01-05T00:53:51.045Z,28.7
2018-01-05T00:54:51.062Z,28.8
2018-01-05T00:55:54.027Z,28.7
2018-01-05T00:56:54.157Z,28.7
2018-01-05T00:57:50.993Z,28.7
2018-01-05T00:58:51.029Z,28.7
2018-01-05T00:59:51.155Z,28.7
2018-01-05T01:00:51.169Z,28.7
2018-01-05T01:01:51.252Z,28.7
2018-01-05T01:02:54.157Z,28.6
2018-01-05T01:03:54.457Z,28.7
2018-01-05T01:04:51.595Z,28.7
2018-01-05T01:05:51.624Z,28.7
2018-01-05T01:06:54.263Z,28.7
2018-01-05T01:07:51.472Z,28.7
2018-01-05T01:08:51.483Z,28.7
2018-01-05T01:09:51.853Z,28.7
2018-01-05T01:10:54.752Z,28.7
2018-01-05T01:11:54.842Z,28.7
2018-01-05T01:12:51.707Z,28.7
2018-01-05T01:13:52.031Z,28.7
2018-01-05T01:14:52.055Z,28.7
2018-01-05T01:15:52.197Z,28.7
2018-01-05T01:16:52.108Z,28.7
2018-01-05T01:17:52.171Z,28.7
2018-01-05T01:18:51.912Z,28.7
2018-01-05T01:19:51.927Z,28.7
2018-01-05T01:20:51.939Z,28.7
2018-01-05T01:21:51.991Z,28.7
2018-01-05T01:22:52.276Z,28.7
2018-01-05T01:23:54.956Z,28.7
2018-01-05T01:24:54.993Z,28.7
2018-01-05T01:25:52.201Z,28.7
2018-01-05T01:26:52.169Z,28.7
2018-01-05T01:27:52.620Z,28.7
2018-01-05T01:28:55.243Z,28.6
2018-01-05T01:29:52.364Z,28.7
2018-01-05T01:30:52.758Z,28.7
2018-01-05T01:31:52.438Z,28.6
2018-01-05T01:32:52.513Z,28.7
2018-01-05T01:33:52.953Z,28.7
2018-01-05T01:34:52.643Z,28.6
2018-01-05T01:35:55.592Z,28.7
2018-01-05T01:36:52.913Z,28.7
2018-01-05T01:37:53.157Z,28.7
2018-01-05T01:38:53.145Z,28.6
2018-01-05T01:39:56.168Z,28.7
2018-01-05T01:40:55.891Z,28.7
2018-01-05T01:41:55.884Z,28.7
2018-01-05T01:42:53.503Z,28.7
2018-01-05T01:43:56.346Z,28.7
2018-01-05T01:44:56.328Z,28.6
2018-01-05T01:45:53.712Z,28.7
2018-01-05T01:46:53.564Z,28.7
2018-01-05T01:47:53.492Z,28.6
2018-01-05T01:48:53.549Z,28.6
2018-01-05T01:49:53.513Z,28.6
2018-01-05T01:50:53.855Z,28.6
2018-01-05T01:51:53.844Z,28.6
2018-01-05T01:52:56.826Z,28.6
2018-01-05T01:53:53.598Z,28.6
2018-01-05T01:54:54.029Z,28.6
2018-01-05T01:55:54.064Z,28.6
2018-01-05T01:56:54.055Z,28.6
2018-01-05T01:57:54.172Z,28.6
2018-01-05T01:58:53.894Z,28.6
2018-01-05T01:59:54.291Z,28.6
2018-01-05T02:00:54.024Z,28.6
2018-01-05T02:01:54.090Z,28.6
2018-01-05T02:02:57.353Z,28.6
2018-01-05T02:03:57.386Z,28.6
2018-01-05T02:04:57.445Z,28.6
2018-01-05T02:05:54.323Z,28.6
2018-01-05T02:06:57.585Z,28.6
2018-01-05T02:07:54.429Z,28.6
2018-01-05T02:08:54.506Z,28.6
2018-01-05T02:09:57.737Z,28.6
2018-01-05T02:10:54.874Z,28.6
2018-01-05T02:11:57.859Z,28.6
2018-01-05T02:12:55.023Z,28.6
2018-01-05T02:13:54.736Z,28.6
2018-01-05T02:14:57.979Z,28.5
2018-01-05T02:15:57.664Z,28.6
2018-01-05T02:16:55.146Z,28.6
2018-01-05T02:17:58.086Z,28.6
2018-01-05T02:18:58.162Z,28.6
2018-01-05T02:19:55.009Z,28.5
2018-01-05T02:20:55.402Z,28.6
2018-01-05T02:21:58.404Z,28.6
2018-01-05T02:22:55.480Z,28.6
2018-01-05T02:23:58.424Z,28.5
2018-01-05T02:24:55.602Z,28.6
2018-01-05T02:25:55.297Z,28.6
2018-01-05T02:26:55.666Z,28.6
2018-01-05T02:27:58.719Z,28.6
2018-01-05T02:28:55.507Z,28.5
2018-01-05T02:29:58.791Z,28.6
2018-01-05T02:30:56.043Z,28.6
2018-01-05T02:31:55.703Z,28.6
2018-01-05T02:32:55.730Z,28.6
2018-01-05T02:33:55.798Z,28.6
2018-01-05T02:34:55.842Z,28.5
2018-01-05T02:35:59.144Z,28.5
2018-01-05T02:36:56.201Z,28.6
2018-01-05T02:37:55.984Z,28.6
2018-01-05T02:38:58.950Z,28.6
2018-01-05T02:39:56.423Z,28.5
2018-01-05T02:40:56.478Z,28.6
2018-01-05T02:41:56.122Z,28.6
2018-01-05T02:42:56.514Z,28.6
2018-01-05T02:43:56.317Z,28.6
2018-01-05T02:44:59.193Z,28.6
2018-01-05T02:45:56.390Z,28.5
2018-01-05T02:46:59.316Z,28.6
2018-01-05T02:47:56.401Z,28.6
2018-01-05T02:48:56.845Z,28.6
2018-01-05T02:49:56.650Z,28.6
2018-01-05T02:50:56.597Z,28.6
2018-01-05T02:51:59.942Z,28.6
2018-01-05T02:52:59.962Z,28.5
2018-01-05T02:54:00.013Z,28.6
2018-01-05T02:54:56.854Z,28.6
2018-01-05T02:55:57.207Z,28.6
2018-01-05T02:56:56.953Z,28.5
2018-01-05T02:57:59.936Z,28.5
2018-01-05T02:58:57.076Z,28.5
2018-01-05T02:59:57.140Z,28.5
2018-01-05T03:00:57.205Z,28.5
2018-01-05T03:01:57.314Z,28.6
2018-01-05T03:03:00.573Z,28.5
2018-01-05T03:03:57.451Z,28.5
2018-01-05T03:04:57.420Z,28.5
2018-01-05T03:06:00.734Z,28.5
2018-01-05T03:06:57.578Z,28.5
2018-01-05T03:07:58.005Z,28.5
2018-01-05T03:08:58.067Z,28.5
2018-01-05T03:10:00.645Z,28.5
2018-01-05T03:10:57.880Z,28.5
2018-01-05T03:11:58.263Z,28.5
2018-01-05T03:12:57.971Z,28.5
2018-01-05T03:13:58.340Z,28.5
2018-01-05T03:15:01.358Z,28.5
2018-01-05T03:16:01.316Z,28.5
2018-01-05T03:17:01.564Z,28.5
2018-01-05T03:18:01.083Z,28.5
2018-01-05T03:19:01.556Z,28.5
2018-01-05T03:20:01.602Z,28.5
2018-01-05T03:21:01.656Z,28.5
2018-01-05T03:22:01.780Z,28.5
2018-01-05T03:22:58.574Z,28.5
2018-01-05T03:24:01.760Z,28.5
2018-01-05T03:25:01.853Z,28.5
2018-01-05T03:25:58.711Z,28.5
2018-01-05T03:27:01.936Z,28.5
2018-01-05T03:27:58.710Z,28.5
2018-01-05T03:28:59.096Z,28.5
2018-01-05T03:29:58.807Z,28.5
2018-01-05T03:31:02.074Z,28.5
2018-01-05T03:31:58.903Z,28.5
2018-01-05T03:32:59.030Z,28.5
2018-01-05T03:33:59.046Z,28.5
2018-01-05T03:35:01.952Z,28.5
2018-01-05T03:35:59.435Z,28.5
2018-01-05T03:36:59.567Z,28.5
2018-01-05T03:38:02.175Z,28.5
2018-01-05T03:38:59.711Z,28.5
2018-01-05T03:40:02.207Z,28.5
2018-01-05T03:40:59.683Z,28.5
2018-01-05T03:42:02.598Z,28.5
2018-01-05T03:43:02.615Z,28.5
2018-01-05T03:43:59.507Z,28.5
2018-01-05T03:44:59.936Z,28.5
2018-01-05T03:45:59.967Z,28.5
2018-01-05T03:47:00.045Z,28.5
2018-01-05T03:48:02.968Z,28.5
2018-01-05T03:48:59.871Z,28.5
2018-01-05T03:49:59.931Z,28.5
2018-01-05T03:51:00.264Z,28.5
2018-01-05T03:52:03.187Z,28.5
2018-01-05T03:53:02.872Z,28.5
2018-01-05T03:54:00.077Z,28.5
2018-01-05T03:55:00.095Z,28.5
2018-01-05T03:56:03.329Z,28.5
2018-01-05T03:57:00.492Z,28.5
2018-01-05T03:58:00.639Z,28.5
2018-01-05T03:59:00.223Z,28.5
2018-01-05T04:00:03.201Z,28.5
2018-01-05T04:01:00.345Z,28.5
2018-01-05T04:02:00.650Z,28.5
2018-01-05T04:03:00.661Z,28.5
2018-01-05T04:04:00.379Z,28.5
2018-01-05T04:05:03.658Z,28.5
2018-01-05T04:06:03.330Z,28.5
2018-01-05T04:07:00.507Z,28.5
2018-01-05T04:08:00.795Z,28.5
2018-01-05T04:09:00.555Z,28.5
2018-01-05T04:10:00.620Z,28.5
2018-01-05T04:11:03.544Z,28.5
2018-01-05T04:12:01.042Z,28.5
2018-01-05T04:13:04.006Z,28.4
2018-01-05T04:14:00.827Z,28.5
2018-01-05T04:15:03.729Z,28.5
2018-01-05T04:16:00.825Z,28.5
2018-01-05T04:17:00.851Z,28.5
2018-01-05T04:18:04.130Z,28.5
2018-01-05T04:19:00.900Z,28.5
2018-01-05T04:20:04.174Z,28.5
2018-01-05T04:21:01.051Z,28.4
2018-01-05T04:22:01.332Z,28.4
2018-01-05T04:23:01.103Z,28.5
2018-01-05T04:24:01.215Z,28.4
2018-01-05T04:25:01.259Z,28.5
2018-01-05T04:26:01.580Z,28.5
2018-01-05T04:27:04.246Z,28.5
2018-01-05T04:28:01.419Z,28.5
2018-01-05T04:29:01.391Z,28.5
2018-01-05T04:30:01.459Z,28.5
2018-01-05T04:31:01.543Z,28.5
2018-01-05T04:32:01.602Z,28.5
2018-01-05T04:33:01.640Z,28.5
2018-01-05T04:34:04.840Z,28.5
2018-01-05T04:35:01.678Z,28.4
2018-01-05T04:36:04.602Z,28.5
2018-01-05T04:37:01.804Z,28.4
2018-01-05T04:38:05.120Z,28.5
2018-01-05T04:39:05.123Z,28.4
2018-01-05T04:40:05.180Z,28.5
2018-01-05T04:41:02.042Z,28.5
2018-01-05T04:42:02.106Z,28.5
2018-01-05T04:43:02.189Z,28.5
2018-01-05T04:44:02.249Z,28.5
2018-01-05T04:45:02.230Z,28.5
2018-01-05T04:46:02.321Z,28.5
2018-01-05T04:47:02.378Z,28.5
2018-01-05T04:48:05.543Z,28.5
2018-01-05T04:49:02.714Z,28.4
2018-01-05T04:50:02.764Z,28.4
2018-01-05T04:51:02.813Z,28.4
2018-01-05T04:52:05.794Z,28.5
2018-01-05T04:53:05.762Z,28.5
2018-01-05T04:54:02.621Z,28.5
2018-01-05T04:55:05.882Z,28.5
2018-01-05T04:56:02.662Z,28.5
2018-01-05T04:57:02.729Z,28.5
2018-01-05T04:58:03.056Z,28.5
2018-01-05T04:59:02.753Z,28.5
2018-01-05T05:00:06.029Z,28.5
2018-01-05T05:01:02.908Z,28.5
2018-01-05T05:02:02.856Z,28.5
2018-01-05T05:03:05.809Z,28.5
2018-01-05T05:04:03.021Z,28.5
2018-01-05T05:05:03.060Z,28.5
2018-01-05T05:06:05.974Z,28.5
2018-01-05T05:07:03.088Z,28.4
2018-01-05T05:08:03.485Z,28.4
2018-01-05T05:09:06.066Z,28.5
2018-01-05T05:10:06.147Z,28.4
2018-01-05T05:11:03.676Z,28.5
2018-01-05T05:12:03.282Z,28.5
2018-01-05T05:13:03.769Z,28.5
2018-01-05T05:14:03.801Z,28.5
2018-01-05T05:15:03.504Z,28.4
2018-01-05T05:16:06.419Z,28.5
2018-01-05T05:17:03.515Z,28.4
2018-01-05T05:18:03.558Z,28.4
2018-01-05T05:19:03.592Z,28.4
2018-01-05T05:20:03.696Z,28.5
2018-01-05T05:21:03.748Z,28.4
2018-01-05T05:22:03.769Z,28.4
2018-01-05T05:23:06.705Z,28.4
2018-01-05T05:24:07.083Z,28.4
2018-01-05T05:25:04.249Z,28.4
2018-01-05T05:26:04.009Z,28.4
2018-01-05T05:27:06.988Z,28.4
2018-01-05T05:28:04.188Z,28.4
2018-01-05T05:29:04.499Z,28.4
2018-01-05T05:30:04.299Z,28.4
2018-01-05T05:31:04.368Z,28.4
2018-01-05T05:32:04.425Z,28.4
2018-01-05T05:33:04.477Z,28.4
2018-01-05T05:34:07.393Z,28.4
2018-01-05T05:35:04.910Z,28.4
2018-01-05T05:36:04.734Z,28.4
2018-01-05T05:37:04.699Z,28.4
2018-01-05T05:38:05.115Z,28.4
2018-01-05T05:39:04.880Z,28.4
2018-01-05T05:40:04.955Z,28.4
2018-01-05T05:41:04.964Z,28.4
2018-01-05T05:42:07.983Z,28.4
2018-01-05T05:43:08.001Z,28.4
2018-01-05T05:44:06.287Z,28.4
2018-01-05T05:45:08.012Z,28.4
2018-01-05T05:46:05.189Z,28.4
2018-01-05T05:47:05.766Z,28.4
2018-01-05T05:48:05.266Z,28.4
2018-01-05T05:49:05.337Z,28.4
2018-01-05T05:50:08.527Z,28.5
2018-01-05T05:51:08.233Z,28.5
2018-01-05T05:52:05.470Z,28.5
2018-01-05T05:53:05.486Z,28.4
2018-01-05T05:54:08.402Z,28.5
2018-01-05T05:55:08.816Z,28.4
2018-01-05T05:56:05.986Z,28.4
2018-01-05T05:57:05.735Z,28.5
2018-01-05T05:58:06.179Z,28.5
2018-01-05T05:59:09.166Z,28.5
2018-01-05T06:00:06.190Z,28.5
2018-01-05T06:01:08.791Z,28.5
2018-01-05T06:02:06.073Z,28.5
2018-01-05T06:03:06.088Z,28.5
2018-01-05T06:04:06.127Z,28.5
2018-01-05T06:05:09.314Z,28.5
2018-01-05T06:06:09.145Z,28.5
2018-01-05T06:07:06.173Z,28.5
2018-01-05T06:08:09.376Z,28.5
2018-01-05T06:09:06.231Z,28.5
2018-01-05T06:10:06.250Z,28.5
2018-01-05T06:11:06.666Z,28.5
2018-01-05T06:12:09.561Z,28.5
2018-01-05T06:13:06.363Z,28.5
2018-01-05T06:14:06.369Z,28.5
2018-01-05T06:15:06.456Z,28.5
2018-01-05T06:16:06.544Z,28.5
2018-01-05T06:17:09.798Z,28.5
2018-01-05T06:18:06.700Z,28.5
2018-01-05T06:19:06.748Z,28.5
2018-01-05T06:20:09.611Z,28.5
2018-01-05T06:21:09.967Z,28.5
2018-01-05T06:22:09.596Z,28.5
2018-01-05T06:23:06.851Z,28.5
2018-01-05T06:24:09.750Z,28.5
2018-01-05T06:25:07.323Z,28.5
2018-01-05T06:26:10.189Z,28.5
2018-01-05T06:27:07.090Z,28.5
2018-01-05T06:28:07.112Z,28.5
2018-01-05T06:29:07.135Z,28.5
2018-01-05T06:30:07.298Z,28.5
2018-01-05T06:31:10.556Z,28.5
2018-01-05T06:32:07.280Z,28.5
2018-01-05T06:33:07.425Z,28.5
2018-01-05T06:34:07.389Z,28.5
2018-01-05T06:35:07.668Z,28.5
2018-01-05T06:36:07.450Z,28.5
2018-01-05T06:37:07.447Z,28.5
2018-01-05T06:38:10.757Z,28.5
2018-01-05T06:39:07.959Z,28.5
2018-01-05T06:40:07.693Z,28.5
2018-01-05T06:41:10.581Z,28.5
2018-01-05T06:42:10.659Z,28.5
2018-01-05T06:43:07.840Z,28.5
2018-01-05T06:44:07.837Z,28.5
2018-01-05T06:45:11.150Z,28.5
2018-01-05T06:46:11.253Z,28.5
2018-01-05T06:47:08.404Z,28.5
2018-01-05T06:48:08.089Z,28.5
2018-01-05T06:49:08.091Z,28.5
2018-01-05T06:50:11.312Z,28.5
2018-01-05T06:51:08.169Z,28.5
2018-01-05T06:52:11.481Z,28.5
2018-01-05T06:53:08.639Z,28.5
2018-01-05T06:54:11.594Z,28.5
2018-01-05T06:55:08.449Z,28.5
2018-01-05T06:56:11.701Z,28.5
2018-01-05T06:57:09.008Z,28.5
2018-01-05T06:58:08.681Z,28.5
2018-01-05T06:59:11.893Z,28.5
2018-01-05T07:00:11.988Z,28.5
2018-01-05T07:01:08.723Z,28.5
2018-01-05T07:02:08.814Z,28.5
2018-01-05T07:03:09.092Z,28.5
2018-01-05T07:04:09.160Z,28.5
2018-01-05T07:05:08.853Z,28.5
2018-01-05T07:06:11.785Z,28.5
2018-01-05T07:07:11.834Z,28.5
2018-01-05T07:08:08.995Z,28.5
2018-01-05T07:09:09.039Z,28.5
2018-01-05T07:10:09.033Z,28.6
2018-01-05T07:11:09.250Z,28.5
2018-01-05T07:12:09.050Z,28.5
2018-01-05T07:13:09.135Z,28.6
2018-01-05T07:14:09.179Z,28.6
2018-01-05T07:15:09.276Z,28.7
2018-01-05T07:16:09.320Z,28.7
2018-01-05T07:17:10.360Z,28.7
2018-01-05T07:18:12.714Z,28.7
2018-01-05T07:19:12.747Z,28.8
2018-01-05T07:20:12.465Z,28.8
2018-01-05T07:21:09.649Z,28.8
2018-01-05T07:22:09.724Z,28.8
2018-01-05T07:23:12.945Z,28.9
2018-01-05T07:24:13.054Z,28.8
2018-01-05T07:25:09.983Z,28.9
2018-01-05T07:26:13.169Z,28.9
2018-01-05T07:27:10.012Z,28.8
2018-01-05T07:28:09.987Z,28.9
2018-01-05T07:29:13.316Z,28.9
2018-01-05T07:30:13.394Z,28.9
2018-01-05T07:31:13.394Z,28.9
2018-01-05T07:32:10.630Z,29
2018-01-05T07:33:10.325Z,29
2018-01-05T07:34:13.669Z,29
2018-01-05T07:35:10.426Z,29
2018-01-05T07:36:13.364Z,29
2018-01-05T07:37:13.771Z,29
2018-01-05T07:38:10.633Z,29
2018-01-05T07:39:10.676Z,29.1
2018-01-05T07:40:13.991Z,29.1
2018-01-05T07:41:10.826Z,29
2018-01-05T07:42:10.852Z,29.1
2018-01-05T07:43:11.292Z,29.1
2018-01-05T07:44:10.986Z,29.1
2018-01-05T07:45:11.023Z,29
2018-01-05T07:46:14.310Z,29.1
2018-01-05T07:47:11.467Z,29.1
2018-01-05T07:48:11.186Z,29.1
2018-01-05T07:49:11.224Z,29.1
2018-01-05T07:50:11.185Z,29.1
2018-01-05T07:51:11.583Z,29.2
2018-01-05T07:52:11.534Z,29.1
2018-01-05T07:53:14.529Z,29.1
2018-01-05T07:54:11.386Z,29.2
2018-01-05T07:55:11.420Z,29.2
2018-01-05T07:56:11.458Z,29.2
2018-01-05T07:57:11.769Z,29.2
2018-01-05T07:58:11.489Z,29.1
2018-01-05T07:59:14.693Z,29.1
2018-01-05T08:00:14.820Z,29.2
2018-01-05T08:01:12.031Z,29.2
2018-01-05T08:02:14.885Z,29.2
2018-01-05T08:03:12.088Z,29.2
2018-01-05T08:04:11.886Z,29.3
2018-01-05T08:05:11.818Z,29.3
2018-01-05T08:06:15.219Z,29.3
2018-01-05T08:07:12.034Z,29.3
2018-01-05T08:08:14.936Z,29.3
2018-01-05T08:09:12.071Z,29.3
2018-01-05T08:10:12.143Z,29.3
2018-01-05T08:11:12.087Z,29.3
2018-01-05T08:12:12.340Z,29.3
2018-01-05T08:13:15.439Z,29.3
2018-01-05T08:14:12.242Z,29.4
2018-01-05T08:15:15.641Z,29.2
2018-01-05T08:16:12.476Z,29.1
2018-01-05T08:17:12.890Z,29.1
2018-01-05T08:18:12.602Z,29.2
2018-01-05T08:19:12.627Z,29.2
2018-01-05T08:20:15.861Z,29.2
2018-01-05T08:21:15.902Z,29.2
2018-01-05T08:22:15.828Z,29.3
2018-01-05T08:23:12.896Z,29.3
2018-01-05T08:24:12.822Z,29.3
2018-01-05T08:25:16.207Z,29.3
2018-01-05T08:26:15.834Z,29.3
2018-01-05T08:27:16.242Z,29.3
2018-01-05T08:28:12.909Z,29.4
2018-01-05T08:29:13.342Z,29.4
2018-01-05T08:30:12.963Z,29.4
2018-01-05T08:31:16.143Z,29.4
2018-01-05T08:32:16.218Z,29.4
2018-01-05T08:33:16.269Z,29.4
2018-01-05T08:34:16.587Z,29.5
2018-01-05T08:35:16.452Z,29.5
2018-01-05T08:36:13.394Z,29.5
2018-01-05T08:37:13.419Z,29.5
2018-01-05T08:38:13.422Z,29.5
2018-01-05T08:39:16.705Z,29.5
2018-01-05T08:40:13.373Z,29.6
2018-01-05T08:41:16.341Z,29.6
2018-01-05T08:42:13.498Z,29.6
2018-01-05T08:43:13.900Z,29.6
2018-01-05T08:44:13.902Z,29.6
2018-01-05T08:45:16.832Z,29.7
2018-01-05T08:46:13.637Z,29.7
2018-01-05T08:47:13.664Z,29.7
2018-01-05T08:48:16.971Z,29.8
2018-01-05T08:49:16.929Z,29.7
2018-01-05T08:50:16.737Z,29.8
2018-01-05T08:51:13.908Z,29.8
2018-01-05T08:52:13.989Z,29.9
2018-01-05T08:53:17.276Z,29.9
2018-01-05T08:54:14.086Z,29.9
2018-01-05T08:55:14.421Z,29.9
2018-01-05T08:56:14.452Z,29.9
2018-01-05T08:57:14.580Z,30
2018-01-05T08:58:14.627Z,30
2018-01-05T08:59:14.333Z,30
2018-01-05T09:00:17.628Z,30
2018-01-05T09:01:17.695Z,30
2018-01-05T09:02:17.717Z,30
2018-01-05T09:03:14.943Z,30
2018-01-05T09:04:14.563Z,30
2018-01-05T09:05:14.896Z,30
2018-01-05T09:06:17.916Z,30.1
2018-01-05T09:07:17.561Z,30.1
2018-01-05T09:08:14.804Z,30.1
2018-01-05T09:09:15.175Z,30.1
2018-01-05T09:10:18.110Z,30.1
2018-01-05T09:11:14.935Z,30.1
2018-01-05T09:12:17.772Z,30.1
2018-01-05T09:13:18.182Z,30.2
2018-01-05T09:14:18.196Z,30.2
2018-01-05T09:15:15.190Z,30.2
2018-01-05T09:16:15.554Z,30.2
2018-01-05T09:17:15.457Z,30.2
2018-01-05T09:18:15.592Z,30.2
2018-01-05T09:19:15.317Z,30.3
2018-01-05T09:20:15.699Z,30.3
2018-01-05T09:21:18.297Z,30.3
2018-01-05T09:22:16.035Z,30.3
2018-01-05T09:23:18.698Z,30.3
2018-01-05T09:24:15.497Z,30.4
2018-01-05T09:25:18.786Z,30.4
2018-01-05T09:26:18.499Z,30.4
2018-01-05T09:27:15.702Z,30.4
2018-01-05T09:28:18.576Z,30.4
2018-01-05T09:29:15.841Z,30.4
2018-01-05T09:30:15.824Z,30.4
2018-01-05T09:31:19.113Z,30.5
2018-01-05T09:32:16.257Z,30.4
2018-01-05T09:33:16.280Z,30.5
2018-01-05T09:34:16.051Z,30.5
2018-01-05T09:35:18.998Z,30.5
2018-01-05T09:36:16.214Z,30.6
2018-01-05T09:37:19.397Z,30.6
2018-01-05T09:38:19.254Z,30.6
2018-01-05T09:39:16.269Z,30.5
2018-01-05T09:40:19.274Z,30.6
2018-01-05T09:41:19.625Z,30.6
2018-01-05T09:42:19.289Z,30.7
2018-01-05T09:43:16.848Z,30.7
2018-01-05T09:44:19.764Z,30.7
2018-01-05T09:45:19.540Z,30.7
2018-01-05T09:46:16.661Z,30.7
2018-01-05T09:47:16.704Z,30.7
2018-01-05T09:48:16.656Z,30.8
2018-01-05T09:49:16.717Z,30.8
2018-01-05T09:50:16.819Z,30.8
2018-01-05T09:51:16.915Z,30.8
2018-01-05T09:52:16.981Z,30.9
2018-01-05T09:53:17.017Z,30.9
2018-01-05T09:54:17.071Z,30.9
2018-01-05T09:59:12.234Z,31
2018-01-05T10:00:12.258Z,31
2018-01-05T10:01:12.771Z,31
2018-01-05T10:02:15.017Z,31
2018-01-05T10:03:12.248Z,31
2018-01-05T10:04:12.266Z,31.1
2018-01-05T10:05:12.699Z,31.1
2018-01-05T10:06:12.668Z,31.1
2018-01-05T10:07:12.453Z,31.1
2018-01-05T10:08:12.600Z,31.1
2018-01-05T10:09:12.876Z,31.1
2018-01-05T10:10:15.825Z,31.1
2018-01-05T10:11:15.474Z,31.1
2018-01-05T10:12:12.656Z,31.1
2018-01-05T10:13:13.029Z,31.1
2018-01-05T10:14:16.039Z,31.1
2018-01-05T10:15:15.688Z,31.2
2018-01-05T10:16:13.153Z,31.2
2018-01-05T10:17:16.060Z,31.1
2018-01-05T10:18:16.161Z,31.1
2018-01-05T10:19:12.996Z,31.1
2018-01-05T10:20:12.988Z,31.1
2018-01-05T10:21:13.066Z,31.1
2018-01-05T10:22:16.385Z,31.1
2018-01-05T10:23:13.173Z,31.1
2018-01-05T10:24:13.577Z,31
2018-01-05T10:25:16.719Z,31
2018-01-05T10:26:16.828Z,31
2018-01-05T10:27:13.631Z,31
2018-01-05T10:28:13.849Z,31
2018-01-05T10:29:13.478Z,31
2018-01-05T10:30:13.613Z,31
2018-01-05T10:31:16.871Z,31.1
2018-01-05T10:32:16.920Z,31.1
2018-01-05T10:33:14.082Z,31.1
2018-01-05T10:34:14.126Z,31.1
2018-01-05T10:35:13.758Z,31.1
2018-01-05T10:36:14.146Z,31.1
2018-01-05T10:37:17.159Z,31.1
2018-01-05T10:38:16.938Z,31.2
2018-01-05T10:39:14.074Z,31.2
2018-01-05T10:40:14.122Z,31.2
2018-01-05T10:41:14.536Z,31.2
2018-01-05T10:42:17.384Z,31.2
2018-01-05T10:43:17.577Z,31.2
2018-01-05T10:44:18.427Z,31.2
2018-01-05T10:45:17.176Z,31.2
2018-01-05T10:46:17.587Z,31.2
2018-01-05T10:47:17.696Z,31.3
2018-01-05T10:48:17.377Z,31.3
2018-01-05T10:49:17.960Z,31.2
2018-01-05T10:50:17.985Z,31.2
2018-01-05T10:51:15.081Z,31.2
2018-01-05T10:52:17.912Z,31.2
2018-01-05T10:53:17.682Z,31.2
2018-01-05T10:54:15.155Z,31.2
2018-01-05T10:55:15.154Z,31.2
2018-01-05T10:56:14.952Z,31.2
2018-01-05T10:57:18.189Z,31.2
2018-01-05T10:58:18.270Z,31.2
2018-01-05T10:59:15.121Z,31.2
2018-01-05T11:00:18.031Z,31.2
2018-01-05T11:01:18.542Z,31.2
2018-01-05T11:02:15.250Z,31.2
2018-01-05T11:03:18.200Z,31.2
2018-01-05T11:04:15.499Z,31.2
2018-01-05T11:05:18.736Z,31.2
2018-01-05T11:06:15.566Z,31.1
2018-01-05T11:07:16.060Z,31.2
2018-01-05T11:08:18.565Z,31.2
2018-01-05T11:09:15.721Z,31.2
2018-01-05T11:10:15.751Z,31.2
2018-01-05T11:11:16.056Z,31.2
2018-01-05T11:12:16.113Z,31.2
2018-01-05T11:13:19.114Z,31.2
2018-01-05T11:14:16.300Z,31.2
2018-01-05T11:15:15.987Z,31.2
2018-01-05T11:16:18.894Z,31.2
2018-01-05T11:17:19.287Z,31.2
2018-01-05T11:18:16.132Z,31.2
2018-01-05T11:19:16.444Z,30.9
2018-01-05T11:20:19.446Z,30.5
2018-01-05T11:21:16.639Z,30.1
2018-01-05T11:22:19.488Z,29.6
2018-01-05T11:23:16.316Z,29.2
2018-01-05T11:24:19.283Z,28.8
2018-01-05T11:25:19.270Z,28.5
2018-01-05T11:26:16.758Z,28.2
2018-01-05T11:27:20.785Z,27.9
2018-01-05T11:28:19.835Z,27.7
2018-01-05T11:29:16.963Z,27.5
2018-01-05T11:30:17.120Z,27.4
2018-01-05T11:31:20.060Z,27.2
2018-01-05T11:32:25.196Z,27.1
2018-01-05T11:33:20.749Z,26.9
2018-01-05T11:34:17.040Z,26.8
2018-01-05T11:35:19.932Z,26.8
2018-01-05T11:36:17.418Z,26.6
2018-01-05T11:37:17.505Z,26.6
2018-01-05T11:38:20.810Z,26.4
2018-01-05T11:39:17.363Z,26.4
2018-01-05T11:40:20.582Z,26.4
2018-01-05T11:41:17.367Z,26.4
2018-01-05T11:42:17.486Z,26.4
2018-01-05T11:43:17.533Z,26.3
2018-01-05T11:44:20.817Z,26.3
2018-01-05T11:45:17.897Z,26.3
2018-01-05T11:46:17.579Z,26.2
2018-01-05T11:47:20.800Z,26.1
2018-01-05T11:48:17.633Z,26.1
2018-01-05T11:49:20.931Z,26
2018-01-05T11:50:20.906Z,26
2018-01-05T11:51:17.907Z,25.9
2018-01-05T11:52:20.754Z,25.8
2018-01-05T11:53:21.168Z,25.8
2018-01-05T11:54:21.119Z,25.7
2018-01-05T11:55:20.910Z,25.7
2018-01-05T11:56:21.382Z,25.8
2018-01-05T11:57:18.120Z,26.1
2018-01-05T11:58:18.484Z,26.3
2018-01-05T11:59:21.413Z,26.6
2018-01-05T12:00:21.484Z,26.8
2018-01-05T12:01:21.550Z,27.1
2018-01-05T12:02:18.373Z,27.3
2018-01-05T12:03:18.407Z,27.5
2018-01-05T12:04:21.653Z,27.7
2018-01-05T12:05:18.743Z,27.9
2018-01-05T12:06:21.787Z,28
2018-01-05T12:07:18.841Z,28.1
2018-01-05T12:08:18.593Z,28.3
2018-01-05T12:09:21.871Z,28.4
2018-01-05T12:10:19.128Z,28.5
2018-01-05T12:11:18.811Z,28.6
2018-01-05T12:12:19.249Z,28.7
2018-01-05T12:13:19.235Z,28.8
2018-01-05T12:14:19.484Z,28.9
2018-01-05T12:15:22.338Z,28.9
2018-01-05T12:16:22.525Z,29
2018-01-05T12:17:19.540Z,29.1
2018-01-05T12:18:23.428Z,29.1
2018-01-05T12:19:19.189Z,29.2
2018-01-05T12:20:19.354Z,29.2
2018-01-05T12:21:19.726Z,29.3
2018-01-05T12:22:22.973Z,29.3
2018-01-05T12:23:19.631Z,29.4
2018-01-05T12:24:19.879Z,29.4
2018-01-05T12:25:22.800Z,29.4
2018-01-05T12:26:19.651Z,29.5
2018-01-05T12:27:22.410Z,29.6
2018-01-05T12:28:20.212Z,29.6
2018-01-05T12:29:23.103Z,29.6
2018-01-05T12:30:20.122Z,29.7
2018-01-05T12:31:23.189Z,29.7
2018-01-05T12:32:20.217Z,29.7
2018-01-05T12:33:20.152Z,29.7
2018-01-05T12:34:23.307Z,29.7
2018-01-05T12:35:23.089Z,29.7
2018-01-05T12:36:23.386Z,29.7
2018-01-05T12:37:20.261Z,29.7
2018-01-05T12:38:20.153Z,29.7
2018-01-05T12:39:20.279Z,29.7
2018-01-05T12:40:20.702Z,29.7
2018-01-05T12:41:23.268Z,29.7
2018-01-05T12:42:20.712Z,29.7
2018-01-05T12:43:21.708Z,29.7
2018-01-05T12:44:21.994Z,29.8
2018-01-05T12:45:21.723Z,29.8
2018-01-05T12:46:21.781Z,29.8
2018-01-05T12:47:21.471Z,29.8
2018-01-05T12:48:25.427Z,29.8
2018-01-05T12:49:24.770Z,29.9
2018-01-05T12:50:21.412Z,29.9
2018-01-05T12:51:22.633Z,29.9
2018-01-05T12:52:26.119Z,29.9
2018-01-05T12:53:24.939Z,30
2018-01-05T12:54:22.158Z,30
2018-01-05T12:55:21.998Z,30
2018-01-05T12:56:25.330Z,30
2018-01-05T12:57:22.586Z,30
2018-01-05T12:58:25.436Z,30
2018-01-05T12:59:25.080Z,30
2018-01-05T13:00:25.933Z,30.1
2018-01-05T13:01:22.510Z,30.1
2018-01-05T13:02:22.020Z,30.2
2018-01-05T13:03:25.195Z,30.2
2018-01-05T13:04:23.026Z,30.3
2018-01-05T13:05:22.380Z,30.3
2018-01-05T13:06:26.112Z,30.4
2018-01-05T13:07:21.834Z,30.4
2018-01-05T13:08:24.866Z,30.4
2018-01-05T13:09:21.989Z,30.5
2018-01-05T13:10:25.050Z,30.5
2018-01-05T13:11:25.095Z,30.5
2018-01-05T13:12:21.867Z,30.5
2018-01-05T13:13:22.166Z,30.5
2018-01-05T13:14:25.080Z,30.5
2018-01-05T13:15:21.998Z,30.5
2018-01-05T13:16:22.107Z,30.5
2018-01-05T13:17:22.668Z,30.4
2018-01-05T13:18:22.492Z,30.4
2018-01-05T13:19:25.359Z,30.4
2018-01-05T13:20:22.165Z,30.4
2018-01-05T13:21:22.196Z,30.4
2018-01-05T13:22:22.574Z,30.4
2018-01-05T13:23:25.412Z,30.4
2018-01-05T13:24:22.751Z,30.4
2018-01-05T13:25:22.423Z,30.4
2018-01-05T13:26:22.808Z,30.4